sensor_id;sensor_type;location;lat;lon;timestamp;P1;durP1;ratioP1;P2;durP2;ratioP2
47784;SDS011;35233;55.686;37.848;2022-12-10T00:01:06;25.33;;;13.93;;
47784;SDS011;35233;55.686;37.848;2022-12-10T00:03:36;21.15;;;12.15;;
47784;SDS011;35233;55.686;37.848;2022-12-10T00:06:03;23.52;;;13.75;;
47784;SDS011;35233;55.686;37.848;2022-12-10T00:08:30;25.63;;;14.30;;
47784;SDS011;35233;55.686;37.848;2022-12-10T00:10:56;21.92;;;13.30;;
47784;SDS011;35233;55.686;37.848;2022-12-10T00:13:22;23.50;;;13.82;;
47784;SDS011;35233;55.686;37.848;2022-12-10T00:15:48;20.45;;;13.73;;
47784;SDS011;35233;55.686;37.848;2022-12-10T00:18:13;21.58;;;13.25;;
47784;SDS011;35233;55.686;37.848;2022-12-10T00:20:39;20.75;;;12.68;;
47784;SDS011;35233;55.686;37.848;2022-12-10T00:23:05;23.83;;;12.38;;
47784;SDS011;35233;55.686;37.848;2022-12-10T00:25:34;21.77;;;12.55;;
47784;SDS011;35233;55.686;37.848;2022-12-10T00:28:02;22.05;;;13.45;;
47784;SDS011;35233;55.686;37.848;2022-12-10T00:30:27;22.88;;;13.63;;
47784;SDS011;35233;55.686;37.848;2022-12-10T00:32:53;20.23;;;13.15;;
47784;SDS011;35233;55.686;37.848;2022-12-10T00:35:18;23.80;;;13.95;;
47784;SDS011;35233;55.686;37.848;2022-12-10T00:37:44;22.77;;;12.85;;
47784;SDS011;35233;55.686;37.848;2022-12-10T00:40:09;22.75;;;12.73;;
47784;SDS011;35233;55.686;37.848;2022-12-10T00:42:38;20.65;;;12.20;;
47784;SDS011;35233;55.686;37.848;2022-12-10T00:45:03;20.35;;;12.20;;
47784;SDS011;35233;55.686;37.848;2022-12-10T00:47:29;22.20;;;12.85;;
47784;SDS011;35233;55.686;37.848;2022-12-10T00:49:55;21.33;;;12.73;;
47784;SDS011;35233;55.686;37.848;2022-12-10T00:52:21;23.70;;;13.15;;
47784;SDS011;35233;55.686;37.848;2022-12-10T00:54:46;22.60;;;12.85;;
47784;SDS011;35233;55.686;37.848;2022-12-10T00:57:12;21.92;;;12.82;;
47784;SDS011;35233;55.686;37.848;2022-12-10T00:59:37;22.38;;;13.57;;
47784;SDS011;35233;55.686;37.848;2022-12-10T01:02:03;22.67;;;12.65;;
47784;SDS011;35233;55.686;37.848;2022-12-10T01:04:29;25.23;;;13.52;;
47784;SDS011;35233;55.686;37.848;2022-12-10T01:06:54;23.85;;;12.15;;
47784;SDS011;35233;55.686;37.848;2022-12-10T01:09:24;23.35;;;12.70;;
47784;SDS011;35233;55.686;37.848;2022-12-10T01:11:51;23.27;;;13.43;;
47784;SDS011;35233;55.686;37.848;2022-12-10T01:14:19;25.17;;;13.88;;
47784;SDS011;35233;55.686;37.848;2022-12-10T01:16:48;23.50;;;13.65;;
47784;SDS011;35233;55.686;37.848;2022-12-10T01:19:14;26.05;;;13.25;;
47784;SDS011;35233;55.686;37.848;2022-12-10T01:21:40;21.17;;;12.25;;
47784;SDS011;35233;55.686;37.848;2022-12-10T01:24:06;24.50;;;12.98;;
47784;SDS011;35233;55.686;37.848;2022-12-10T01:26:32;23.77;;;12.90;;
47784;SDS011;35233;55.686;37.848;2022-12-10T01:28:59;28.88;;;13.48;;
47784;SDS011;35233;55.686;37.848;2022-12-10T01:31:32;21.38;;;12.90;;
47784;SDS011;35233;55.686;37.848;2022-12-10T01:34:00;24.10;;;11.88;;
47784;SDS011;35233;55.686;37.848;2022-12-10T01:36:30;22.48;;;12.63;;
47784;SDS011;35233;55.686;37.848;2022-12-10T01:38:58;23.75;;;11.80;;
47784;SDS011;35233;55.686;37.848;2022-12-10T01:41:29;26.27;;;12.77;;
47784;SDS011;35233;55.686;37.848;2022-12-10T01:46:35;17.52;;;10.85;;
47784;SDS011;35233;55.686;37.848;2022-12-10T01:49:04;19.83;;;12.00;;
47784;SDS011;35233;55.686;37.848;2022-12-10T01:51:34;20.35;;;11.57;;
47784;SDS011;35233;55.686;37.848;2022-12-10T01:54:04;24.40;;;12.00;;
47784;SDS011;35233;55.686;37.848;2022-12-10T01:56:33;18.40;;;10.90;;
47784;SDS011;35233;55.686;37.848;2022-12-10T01:59:03;20.95;;;12.00;;
47784;SDS011;35233;55.686;37.848;2022-12-10T02:04:10;19.90;;;11.38;;
47784;SDS011;35233;55.686;37.848;2022-12-10T02:07:01;19.33;;;11.27;;
47784;SDS011;35233;55.686;37.848;2022-12-10T02:20:13;19.33;;;10.82;;
47784;SDS011;35233;55.686;37.848;2022-12-10T02:22:50;17.40;;;10.23;;
47784;SDS011;35233;55.686;37.848;2022-12-10T02:25:21;18.75;;;10.55;;
47784;SDS011;35233;55.686;37.848;2022-12-10T02:30:39;19.27;;;10.90;;
47784;SDS011;35233;55.686;37.848;2022-12-10T02:33:06;16.80;;;9.88;;
47784;SDS011;35233;55.686;37.848;2022-12-10T02:35:34;20.40;;;10.25;;
47784;SDS011;35233;55.686;37.848;2022-12-10T02:38:06;21.48;;;10.77;;
47784;SDS011;35233;55.686;37.848;2022-12-10T02:40:41;17.25;;;10.25;;
47784;SDS011;35233;55.686;37.848;2022-12-10T02:43:10;21.10;;;11.52;;
47784;SDS011;35233;55.686;37.848;2022-12-10T02:45:38;18.45;;;10.85;;
47784;SDS011;35233;55.686;37.848;2022-12-10T02:48:06;17.73;;;10.90;;
47784;SDS011;35233;55.686;37.848;2022-12-10T02:50:32;18.83;;;10.25;;
47784;SDS011;35233;55.686;37.848;2022-12-10T02:52:58;19.40;;;11.23;;
47784;SDS011;35233;55.686;37.848;2022-12-10T02:55:24;18.92;;;10.88;;
47784;SDS011;35233;55.686;37.848;2022-12-10T02:57:56;19.38;;;11.00;;
47784;SDS011;35233;55.686;37.848;2022-12-10T03:00:24;17.98;;;10.55;;
47784;SDS011;35233;55.686;37.848;2022-12-10T03:08:28;19.73;;;11.38;;
47784;SDS011;35233;55.686;37.848;2022-12-10T03:13:57;19.10;;;10.88;;
47784;SDS011;35233;55.686;37.848;2022-12-10T03:16:28;17.02;;;10.43;;
47784;SDS011;35233;55.686;37.848;2022-12-10T03:19:08;16.63;;;10.65;;
47784;SDS011;35233;55.686;37.848;2022-12-10T03:21:36;17.95;;;10.50;;
47784;SDS011;35233;55.686;37.848;2022-12-10T03:24:04;19.65;;;11.48;;
47784;SDS011;35233;55.686;37.848;2022-12-10T03:26:31;19.95;;;10.98;;
47784;SDS011;35233;55.686;37.848;2022-12-10T03:29:01;19.13;;;10.98;;
47784;SDS011;35233;55.686;37.848;2022-12-10T03:31:31;23.07;;;12.50;;
47784;SDS011;35233;55.686;37.848;2022-12-10T03:33:59;17.52;;;10.80;;
47784;SDS011;35233;55.686;37.848;2022-12-10T03:36:26;17.20;;;10.57;;
47784;SDS011;35233;55.686;37.848;2022-12-10T03:38:54;17.15;;;11.00;;
47784;SDS011;35233;55.686;37.848;2022-12-10T03:41:20;18.60;;;10.75;;
47784;SDS011;35233;55.686;37.848;2022-12-10T03:43:56;18.52;;;11.25;;
47784;SDS011;35233;55.686;37.848;2022-12-10T03:46:23;19.67;;;12.15;;
47784;SDS011;35233;55.686;37.848;2022-12-10T03:48:50;18.40;;;11.30;;
47784;SDS011;35233;55.686;37.848;2022-12-10T03:51:17;19.45;;;11.05;;
47784;SDS011;35233;55.686;37.848;2022-12-10T03:53:42;18.70;;;10.98;;
47784;SDS011;35233;55.686;37.848;2022-12-10T03:56:08;19.67;;;12.38;;
47784;SDS011;35233;55.686;37.848;2022-12-10T03:58:33;18.17;;;11.52;;
47784;SDS011;35233;55.686;37.848;2022-12-10T04:00:59;19.77;;;11.02;;
47784;SDS011;35233;55.686;37.848;2022-12-10T04:03:24;18.15;;;9.93;;
47784;SDS011;35233;55.686;37.848;2022-12-10T04:05:50;16.77;;;10.00;;
47784;SDS011;35233;55.686;37.848;2022-12-10T04:08:15;19.27;;;11.05;;
47784;SDS011;35233;55.686;37.848;2022-12-10T04:10:41;15.60;;;9.48;;
47784;SDS011;35233;55.686;37.848;2022-12-10T04:13:06;19.40;;;10.13;;
47784;SDS011;35233;55.686;37.848;2022-12-10T04:15:50;17.05;;;10.43;;
47784;SDS011;35233;55.686;37.848;2022-12-10T04:18:34;17.15;;;10.05;;
47784;SDS011;35233;55.686;37.848;2022-12-10T04:21:00;17.73;;;10.73;;
47784;SDS011;35233;55.686;37.848;2022-12-10T04:23:44;19.58;;;9.65;;
47784;SDS011;35233;55.686;37.848;2022-12-10T04:26:27;18.27;;;10.48;;
47784;SDS011;35233;55.686;37.848;2022-12-10T04:29:11;20.77;;;11.38;;
47784;SDS011;35233;55.686;37.848;2022-12-10T04:31:37;19.98;;;10.60;;
47784;SDS011;35233;55.686;37.848;2022-12-10T04:34:02;16.65;;;10.48;;
47784;SDS011;35233;55.686;37.848;2022-12-10T04:36:28;19.30;;;10.60;;
47784;SDS011;35233;55.686;37.848;2022-12-10T04:38:53;18.80;;;10.48;;
47784;SDS011;35233;55.686;37.848;2022-12-10T04:41:19;17.15;;;10.27;;
47784;SDS011;35233;55.686;37.848;2022-12-10T04:43:44;16.23;;;10.23;;
47784;SDS011;35233;55.686;37.848;2022-12-10T04:46:10;18.50;;;10.77;;
47784;SDS011;35233;55.686;37.848;2022-12-10T04:48:36;18.38;;;10.65;;
47784;SDS011;35233;55.686;37.848;2022-12-10T04:51:01;23.33;;;11.18;;
47784;SDS011;35233;55.686;37.848;2022-12-10T04:53:27;18.08;;;10.73;;
47784;SDS011;35233;55.686;37.848;2022-12-10T04:55:53;17.45;;;10.23;;
47784;SDS011;35233;55.686;37.848;2022-12-10T04:58:18;18.13;;;10.65;;
47784;SDS011;35233;55.686;37.848;2022-12-10T05:00:44;18.13;;;10.48;;
47784;SDS011;35233;55.686;37.848;2022-12-10T05:03:09;20.20;;;11.50;;
47784;SDS011;35233;55.686;37.848;2022-12-10T05:05:35;20.15;;;10.90;;
47784;SDS011;35233;55.686;37.848;2022-12-10T05:08:00;17.83;;;11.07;;
47784;SDS011;35233;55.686;37.848;2022-12-10T05:10:26;17.90;;;10.25;;
47784;SDS011;35233;55.686;37.848;2022-12-10T05:12:52;21.77;;;11.45;;
47784;SDS011;35233;55.686;37.848;2022-12-10T05:15:17;18.00;;;10.63;;
47784;SDS011;35233;55.686;37.848;2022-12-10T05:18:00;18.52;;;10.82;;
47784;SDS011;35233;55.686;37.848;2022-12-10T05:20:25;19.15;;;10.75;;
47784;SDS011;35233;55.686;37.848;2022-12-10T05:22:51;16.42;;;10.10;;
47784;SDS011;35233;55.686;37.848;2022-12-10T05:25:35;19.45;;;10.57;;
47784;SDS011;35233;55.686;37.848;2022-12-10T05:28:17;21.02;;;10.70;;
47784;SDS011;35233;55.686;37.848;2022-12-10T05:30:44;21.67;;;12.10;;
47784;SDS011;35233;55.686;37.848;2022-12-10T05:33:10;18.05;;;10.48;;
47784;SDS011;35233;55.686;37.848;2022-12-10T05:35:35;16.08;;;10.05;;
47784;SDS011;35233;55.686;37.848;2022-12-10T05:38:01;18.00;;;10.52;;
47784;SDS011;35233;55.686;37.848;2022-12-10T05:40:26;17.95;;;10.70;;
47784;SDS011;35233;55.686;37.848;2022-12-10T05:42:52;20.60;;;11.48;;
47784;SDS011;35233;55.686;37.848;2022-12-10T05:45:17;19.10;;;11.45;;
47784;SDS011;35233;55.686;37.848;2022-12-10T05:47:43;21.38;;;11.52;;
47784;SDS011;35233;55.686;37.848;2022-12-10T05:50:08;19.05;;;12.00;;
47784;SDS011;35233;55.686;37.848;2022-12-10T05:52:35;20.77;;;12.00;;
47784;SDS011;35233;55.686;37.848;2022-12-10T05:55:00;18.42;;;11.60;;
47784;SDS011;35233;55.686;37.848;2022-12-10T05:57:29;23.35;;;11.88;;
47784;SDS011;35233;55.686;37.848;2022-12-10T05:59:54;21.85;;;12.00;;
47784;SDS011;35233;55.686;37.848;2022-12-10T06:02:20;20.73;;;11.73;;
47784;SDS011;35233;55.686;37.848;2022-12-10T06:04:45;21.65;;;12.27;;
47784;SDS011;35233;55.686;37.848;2022-12-10T06:07:11;19.48;;;11.68;;
47784;SDS011;35233;55.686;37.848;2022-12-10T06:09:36;21.45;;;12.05;;
47784;SDS011;35233;55.686;37.848;2022-12-10T06:12:02;25.15;;;12.38;;
47784;SDS011;35233;55.686;37.848;2022-12-10T06:14:27;21.35;;;11.52;;
47784;SDS011;35233;55.686;37.848;2022-12-10T06:16:53;21.38;;;11.88;;
47784;SDS011;35233;55.686;37.848;2022-12-10T06:19:18;20.23;;;12.88;;
47784;SDS011;35233;55.686;37.848;2022-12-10T06:21:44;22.88;;;12.23;;
47784;SDS011;35233;55.686;37.848;2022-12-10T06:24:09;22.00;;;12.68;;
47784;SDS011;35233;55.686;37.848;2022-12-10T06:26:35;21.77;;;12.80;;
47784;SDS011;35233;55.686;37.848;2022-12-10T06:29:01;19.25;;;11.25;;
47784;SDS011;35233;55.686;37.848;2022-12-10T06:31:29;24.13;;;12.85;;
47784;SDS011;35233;55.686;37.848;2022-12-10T06:33:54;24.38;;;12.65;;
47784;SDS011;35233;55.686;37.848;2022-12-10T06:36:20;21.88;;;12.68;;
47784;SDS011;35233;55.686;37.848;2022-12-10T06:38:54;20.80;;;11.77;;
47784;SDS011;35233;55.686;37.848;2022-12-10T06:41:20;19.77;;;12.48;;
47784;SDS011;35233;55.686;37.848;2022-12-10T06:43:49;22.80;;;13.07;;
47784;SDS011;35233;55.686;37.848;2022-12-10T06:46:16;20.45;;;11.82;;
47784;SDS011;35233;55.686;37.848;2022-12-10T06:48:43;21.48;;;12.65;;
47784;SDS011;35233;55.686;37.848;2022-12-10T06:51:12;24.08;;;13.75;;
47784;SDS011;35233;55.686;37.848;2022-12-10T06:53:39;25.90;;;13.85;;
47784;SDS011;35233;55.686;37.848;2022-12-10T06:56:06;22.67;;;13.25;;
47784;SDS011;35233;55.686;37.848;2022-12-10T06:58:33;20.90;;;13.15;;
47784;SDS011;35233;55.686;37.848;2022-12-10T07:01:18;22.50;;;13.13;;
47784;SDS011;35233;55.686;37.848;2022-12-10T07:03:49;21.25;;;13.15;;
47784;SDS011;35233;55.686;37.848;2022-12-10T07:06:19;25.70;;;14.30;;
47784;SDS011;35233;55.686;37.848;2022-12-10T07:08:49;22.17;;;13.70;;
47784;SDS011;35233;55.686;37.848;2022-12-10T07:11:16;22.27;;;12.88;;
47784;SDS011;35233;55.686;37.848;2022-12-10T07:13:46;20.45;;;12.45;;
47784;SDS011;35233;55.686;37.848;2022-12-10T07:16:22;22.27;;;13.02;;
47784;SDS011;35233;55.686;37.848;2022-12-10T07:18:58;24.05;;;12.85;;
47784;SDS011;35233;55.686;37.848;2022-12-10T07:21:28;22.25;;;13.43;;
47784;SDS011;35233;55.686;37.848;2022-12-10T07:23:57;18.75;;;11.90;;
47784;SDS011;35233;55.686;37.848;2022-12-10T07:26:25;21.83;;;12.82;;
47784;SDS011;35233;55.686;37.848;2022-12-10T07:29:03;21.70;;;12.30;;
47784;SDS011;35233;55.686;37.848;2022-12-10T07:31:30;22.80;;;12.38;;
47784;SDS011;35233;55.686;37.848;2022-12-10T07:33:57;19.25;;;11.50;;
47784;SDS011;35233;55.686;37.848;2022-12-10T07:36:28;15.02;;;8.98;;
47784;SDS011;35233;55.686;37.848;2022-12-10T07:38:54;15.93;;;8.93;;
47784;SDS011;35233;55.686;37.848;2022-12-10T07:41:23;20.10;;;9.52;;
47784;SDS011;35233;55.686;37.848;2022-12-10T07:43:49;18.67;;;9.15;;
47784;SDS011;35233;55.686;37.848;2022-12-10T07:46:17;16.52;;;9.60;;
47784;SDS011;35233;55.686;37.848;2022-12-10T07:48:51;16.65;;;10.20;;
47784;SDS011;35233;55.686;37.848;2022-12-10T07:51:17;19.35;;;10.60;;
47784;SDS011;35233;55.686;37.848;2022-12-10T07:53:45;17.95;;;10.40;;
47784;SDS011;35233;55.686;37.848;2022-12-10T07:56:10;19.73;;;11.65;;
47784;SDS011;35233;55.686;37.848;2022-12-10T07:58:36;20.48;;;12.15;;
47784;SDS011;35233;55.686;37.848;2022-12-10T08:01:06;18.75;;;11.95;;
47784;SDS011;35233;55.686;37.848;2022-12-10T08:03:32;22.02;;;12.02;;
47784;SDS011;35233;55.686;37.848;2022-12-10T08:06:05;22.70;;;11.55;;
47784;SDS011;35233;55.686;37.848;2022-12-10T08:08:38;21.95;;;11.50;;
47784;SDS011;35233;55.686;37.848;2022-12-10T08:11:07;20.42;;;12.32;;
47784;SDS011;35233;55.686;37.848;2022-12-10T08:13:37;24.33;;;11.90;;
47784;SDS011;35233;55.686;37.848;2022-12-10T08:16:06;22.25;;;12.48;;
47784;SDS011;35233;55.686;37.848;2022-12-10T08:19:00;26.20;;;12.45;;
47784;SDS011;35233;55.686;37.848;2022-12-10T08:21:28;23.30;;;11.15;;
47784;SDS011;35233;55.686;37.848;2022-12-10T08:23:57;19.27;;;11.05;;
47784;SDS011;35233;55.686;37.848;2022-12-10T08:26:24;23.85;;;12.15;;
47784;SDS011;35233;55.686;37.848;2022-12-10T08:28:53;25.77;;;12.30;;
47784;SDS011;35233;55.686;37.848;2022-12-10T08:31:19;21.63;;;11.77;;
47784;SDS011;35233;55.686;37.848;2022-12-10T08:33:46;23.80;;;12.32;;
47784;SDS011;35233;55.686;37.848;2022-12-10T08:36:12;28.70;;;13.73;;
47784;SDS011;35233;55.686;37.848;2022-12-10T08:38:39;23.23;;;12.52;;
47784;SDS011;35233;55.686;37.848;2022-12-10T08:41:09;22.83;;;12.40;;
47784;SDS011;35233;55.686;37.848;2022-12-10T08:43:37;24.30;;;12.57;;
47784;SDS011;35233;55.686;37.848;2022-12-10T08:46:03;23.73;;;12.55;;
47784;SDS011;35233;55.686;37.848;2022-12-10T08:48:29;21.27;;;12.75;;
47784;SDS011;35233;55.686;37.848;2022-12-10T08:50:55;22.45;;;12.65;;
47784;SDS011;35233;55.686;37.848;2022-12-10T08:53:20;25.02;;;13.45;;
47784;SDS011;35233;55.686;37.848;2022-12-10T08:55:48;21.85;;;12.15;;
47784;SDS011;35233;55.686;37.848;2022-12-10T08:58:15;21.85;;;13.77;;
47784;SDS011;35233;55.686;37.848;2022-12-10T09:00:41;22.73;;;13.55;;
47784;SDS011;35233;55.686;37.848;2022-12-10T09:03:07;22.80;;;13.30;;
47784;SDS011;35233;55.686;37.848;2022-12-10T09:05:33;24.90;;;14.15;;
47784;SDS011;35233;55.686;37.848;2022-12-10T09:07:59;25.05;;;13.82;;
47784;SDS011;35233;55.686;37.848;2022-12-10T09:10:25;23.48;;;13.40;;
47784;SDS011;35233;55.686;37.848;2022-12-10T09:12:51;23.70;;;13.63;;
47784;SDS011;35233;55.686;37.848;2022-12-10T09:15:16;26.58;;;14.32;;
47784;SDS011;35233;55.686;37.848;2022-12-10T09:17:42;29.17;;;14.95;;
47784;SDS011;35233;55.686;37.848;2022-12-10T09:20:07;22.50;;;12.85;;
47784;SDS011;35233;55.686;37.848;2022-12-10T09:22:33;25.25;;;13.80;;
47784;SDS011;35233;55.686;37.848;2022-12-10T09:25:02;22.27;;;14.00;;
47784;SDS011;35233;55.686;37.848;2022-12-10T09:27:30;25.02;;;13.80;;
47784;SDS011;35233;55.686;37.848;2022-12-10T09:29:55;22.90;;;13.15;;
47784;SDS011;35233;55.686;37.848;2022-12-10T09:32:21;22.35;;;13.35;;
47784;SDS011;35233;55.686;37.848;2022-12-10T09:34:46;23.70;;;13.50;;
47784;SDS011;35233;55.686;37.848;2022-12-10T09:37:16;24.38;;;13.00;;
47784;SDS011;35233;55.686;37.848;2022-12-10T09:39:41;24.88;;;13.48;;
47784;SDS011;35233;55.686;37.848;2022-12-10T09:47:09;23.80;;;13.63;;
47784;SDS011;35233;55.686;37.848;2022-12-10T09:52:05;27.40;;;15.43;;
47784;SDS011;35233;55.686;37.848;2022-12-10T09:54:43;22.95;;;13.27;;
47784;SDS011;35233;55.686;37.848;2022-12-10T09:57:36;22.90;;;13.20;;
47784;SDS011;35233;55.686;37.848;2022-12-10T10:00:11;24.98;;;13.85;;
47784;SDS011;35233;55.686;37.848;2022-12-10T10:02:43;25.98;;;13.93;;
47784;SDS011;35233;55.686;37.848;2022-12-10T10:05:22;25.02;;;12.73;;
47784;SDS011;35233;55.686;37.848;2022-12-10T10:07:55;25.40;;;13.98;;
47784;SDS011;35233;55.686;37.848;2022-12-10T10:10:39;25.95;;;13.70;;
47784;SDS011;35233;55.686;37.848;2022-12-10T10:15:41;27.02;;;13.32;;
47784;SDS011;35233;55.686;37.848;2022-12-10T10:18:23;25.40;;;13.15;;
47784;SDS011;35233;55.686;37.848;2022-12-10T10:21:02;28.15;;;14.52;;
47784;SDS011;35233;55.686;37.848;2022-12-10T10:23:31;24.88;;;13.30;;
47784;SDS011;35233;55.686;37.848;2022-12-10T10:25:58;23.85;;;13.43;;
47784;SDS011;35233;55.686;37.848;2022-12-10T10:28:23;28.70;;;13.55;;
47784;SDS011;35233;55.686;37.848;2022-12-10T10:30:50;26.75;;;13.90;;
47784;SDS011;35233;55.686;37.848;2022-12-10T10:33:17;23.80;;;13.02;;
47784;SDS011;35233;55.686;37.848;2022-12-10T10:38:16;29.52;;;13.95;;
47784;SDS011;35233;55.686;37.848;2022-12-10T10:40:46;23.55;;;12.90;;
47784;SDS011;35233;55.686;37.848;2022-12-10T10:46:01;22.00;;;12.88;;
47784;SDS011;35233;55.686;37.848;2022-12-10T10:48:36;22.73;;;13.52;;
47784;SDS011;35233;55.686;37.848;2022-12-10T10:53:44;21.98;;;13.43;;
47784;SDS011;35233;55.686;37.848;2022-12-10T10:59:28;25.15;;;13.55;;
47784;SDS011;35233;55.686;37.848;2022-12-10T11:01:52;27.63;;;14.57;;
47784;SDS011;35233;55.686;37.848;2022-12-10T11:07:01;22.05;;;13.23;;
47784;SDS011;35233;55.686;37.848;2022-12-10T11:09:29;22.63;;;13.15;;
47784;SDS011;35233;55.686;37.848;2022-12-10T11:11:58;21.70;;;12.13;;
47784;SDS011;35233;55.686;37.848;2022-12-10T11:14:32;21.98;;;12.23;;
47784;SDS011;35233;55.686;37.848;2022-12-10T11:19:34;22.50;;;12.75;;
47784;SDS011;35233;55.686;37.848;2022-12-10T11:22:17;24.23;;;13.35;;
47784;SDS011;35233;55.686;37.848;2022-12-10T11:24:47;23.55;;;12.63;;
47784;SDS011;35233;55.686;37.848;2022-12-10T11:27:15;26.38;;;13.98;;
47784;SDS011;35233;55.686;37.848;2022-12-10T11:30:04;21.50;;;12.43;;
47784;SDS011;35233;55.686;37.848;2022-12-10T11:38:15;24.58;;;13.15;;
47784;SDS011;35233;55.686;37.848;2022-12-10T11:40:45;26.30;;;13.27;;
47784;SDS011;35233;55.686;37.848;2022-12-10T11:51:07;25.65;;;12.93;;
47784;SDS011;35233;55.686;37.848;2022-12-10T11:59:45;23.35;;;12.48;;
47784;SDS011;35233;55.686;37.848;2022-12-10T12:05:19;25.02;;;12.45;;
47784;SDS011;35233;55.686;37.848;2022-12-10T12:10:21;24.63;;;12.90;;
47784;SDS011;35233;55.686;37.848;2022-12-10T12:15:34;20.38;;;12.45;;
47784;SDS011;35233;55.686;37.848;2022-12-10T12:18:13;20.95;;;12.90;;
47784;SDS011;35233;55.686;37.848;2022-12-10T12:20:58;22.38;;;12.27;;
47784;SDS011;35233;55.686;37.848;2022-12-10T12:26:45;22.67;;;12.87;;
47784;SDS011;35233;55.686;37.848;2022-12-10T12:31:39;23.02;;;12.50;;
47784;SDS011;35233;55.686;37.848;2022-12-10T12:34:23;23.65;;;12.27;;
47784;SDS011;35233;55.686;37.848;2022-12-10T12:36:52;21.60;;;12.32;;
47784;SDS011;35233;55.686;37.848;2022-12-10T12:39:32;20.00;;;12.00;;
47784;SDS011;35233;55.686;37.848;2022-12-10T12:50:18;21.63;;;12.15;;
47784;SDS011;35233;55.686;37.848;2022-12-10T12:52:58;19.92;;;12.20;;
47784;SDS011;35233;55.686;37.848;2022-12-10T13:00:56;19.58;;;11.50;;
47784;SDS011;35233;55.686;37.848;2022-12-10T13:03:29;18.27;;;10.73;;
47784;SDS011;35233;55.686;37.848;2022-12-10T13:06:42;17.67;;;11.55;;
47784;SDS011;35233;55.686;37.848;2022-12-10T13:09:15;18.38;;;11.10;;
47784;SDS011;35233;55.686;37.848;2022-12-10T13:14:31;18.80;;;10.77;;
47784;SDS011;35233;55.686;37.848;2022-12-10T13:17:05;19.67;;;11.75;;
47784;SDS011;35233;55.686;37.848;2022-12-10T13:19:34;18.95;;;10.20;;
47784;SDS011;35233;55.686;37.848;2022-12-10T13:22:02;18.33;;;11.00;;
47784;SDS011;35233;55.686;37.848;2022-12-10T13:27:05;19.15;;;10.45;;
47784;SDS011;35233;55.686;37.848;2022-12-10T13:37:32;15.85;;;9.88;;
47784;SDS011;35233;55.686;37.848;2022-12-10T13:42:39;16.95;;;10.68;;
47784;SDS011;35233;55.686;37.848;2022-12-10T13:45:31;14.45;;;10.10;;
47784;SDS011;35233;55.686;37.848;2022-12-10T13:50:46;16.90;;;11.00;;
47784;SDS011;35233;55.686;37.848;2022-12-10T13:55:49;15.70;;;10.25;;
47784;SDS011;35233;55.686;37.848;2022-12-10T13:59:03;15.95;;;10.63;;
47784;SDS011;35233;55.686;37.848;2022-12-10T14:07:12;15.32;;;9.32;;
47784;SDS011;35233;55.686;37.848;2022-12-10T14:09:43;16.80;;;10.23;;
47784;SDS011;35233;55.686;37.848;2022-12-10T14:12:16;15.38;;;9.52;;
47784;SDS011;35233;55.686;37.848;2022-12-10T14:14:45;14.30;;;9.77;;
47784;SDS011;35233;55.686;37.848;2022-12-10T14:17:18;15.38;;;9.38;;
47784;SDS011;35233;55.686;37.848;2022-12-10T14:19:48;15.00;;;9.88;;
47784;SDS011;35233;55.686;37.848;2022-12-10T14:25:21;14.57;;;9.38;;
47784;SDS011;35233;55.686;37.848;2022-12-10T14:27:49;17.60;;;9.45;;
47784;SDS011;35233;55.686;37.848;2022-12-10T14:30:18;14.25;;;9.38;;
47784;SDS011;35233;55.686;37.848;2022-12-10T14:32:44;15.00;;;9.18;;
47784;SDS011;35233;55.686;37.848;2022-12-10T14:35:14;13.18;;;8.68;;
47784;SDS011;35233;55.686;37.848;2022-12-10T14:37:45;14.05;;;9.10;;
47784;SDS011;35233;55.686;37.848;2022-12-10T14:40:19;12.48;;;8.57;;
47784;SDS011;35233;55.686;37.848;2022-12-10T14:42:49;12.73;;;8.82;;
47784;SDS011;35233;55.686;37.848;2022-12-10T14:45:17;15.25;;;9.00;;
47784;SDS011;35233;55.686;37.848;2022-12-10T14:47:42;14.88;;;9.18;;
47784;SDS011;35233;55.686;37.848;2022-12-10T14:50:11;14.55;;;9.13;;
47784;SDS011;35233;55.686;37.848;2022-12-10T14:52:39;13.43;;;8.45;;
47784;SDS011;35233;55.686;37.848;2022-12-10T14:55:11;13.90;;;8.70;;
47784;SDS011;35233;55.686;37.848;2022-12-10T14:57:39;14.32;;;9.60;;
47784;SDS011;35233;55.686;37.848;2022-12-10T15:00:16;15.20;;;8.77;;
47784;SDS011;35233;55.686;37.848;2022-12-10T15:02:51;11.63;;;8.55;;
47784;SDS011;35233;55.686;37.848;2022-12-10T15:11:23;12.43;;;8.75;;
47784;SDS011;35233;55.686;37.848;2022-12-10T15:13:56;13.57;;;8.60;;
47784;SDS011;35233;55.686;37.848;2022-12-10T15:16:29;11.55;;;8.50;;
47784;SDS011;35233;55.686;37.848;2022-12-10T15:18:55;12.57;;;8.00;;
47784;SDS011;35233;55.686;37.848;2022-12-10T15:21:23;12.80;;;8.10;;
47784;SDS011;35233;55.686;37.848;2022-12-10T15:23:50;12.07;;;8.52;;
47784;SDS011;35233;55.686;37.848;2022-12-10T15:26:32;12.13;;;7.75;;
47784;SDS011;35233;55.686;37.848;2022-12-10T15:29:43;12.30;;;7.85;;
47784;SDS011;35233;55.686;37.848;2022-12-10T15:31:46;11.30;;;7.68;;
47784;SDS011;35233;55.686;37.848;2022-12-10T15:34:13;11.73;;;7.63;;
47784;SDS011;35233;55.686;37.848;2022-12-10T15:42:01;11.02;;;7.63;;
47784;SDS011;35233;55.686;37.848;2022-12-10T15:52:23;10.30;;;6.95;;
47784;SDS011;35233;55.686;37.848;2022-12-10T15:54:52;10.30;;;7.00;;
47784;SDS011;35233;55.686;37.848;2022-12-10T15:59:53;10.10;;;7.10;;
47784;SDS011;35233;55.686;37.848;2022-12-10T16:05:00;9.85;;;6.85;;
47784;SDS011;35233;55.686;37.848;2022-12-10T16:07:31;8.82;;;6.82;;
47784;SDS011;35233;55.686;37.848;2022-12-10T16:09:59;10.43;;;7.10;;
47784;SDS011;35233;55.686;37.848;2022-12-10T16:12:25;9.50;;;6.68;;
47784;SDS011;35233;55.686;37.848;2022-12-10T16:14:51;9.77;;;7.07;;
47784;SDS011;35233;55.686;37.848;2022-12-10T16:17:27;8.68;;;6.53;;
47784;SDS011;35233;55.686;37.848;2022-12-10T16:19:58;10.10;;;6.60;;
47784;SDS011;35233;55.686;37.848;2022-12-10T16:22:45;8.90;;;6.93;;
47784;SDS011;35233;55.686;37.848;2022-12-10T16:25:11;9.88;;;6.97;;
47784;SDS011;35233;55.686;37.848;2022-12-10T16:27:37;9.45;;;6.65;;
47784;SDS011;35233;55.686;37.848;2022-12-10T16:32:40;7.78;;;6.18;;
47784;SDS011;35233;55.686;37.848;2022-12-10T16:35:06;8.38;;;6.40;;
47784;SDS011;35233;55.686;37.848;2022-12-10T16:37:32;9.20;;;6.57;;
47784;SDS011;35233;55.686;37.848;2022-12-10T16:39:57;8.88;;;6.25;;
47784;SDS011;35233;55.686;37.848;2022-12-10T16:42:23;9.52;;;6.32;;
47784;SDS011;35233;55.686;37.848;2022-12-10T16:44:48;9.20;;;6.63;;
47784;SDS011;35233;55.686;37.848;2022-12-10T16:47:14;8.40;;;6.43;;
47784;SDS011;35233;55.686;37.848;2022-12-10T16:49:40;9.02;;;6.40;;
47784;SDS011;35233;55.686;37.848;2022-12-10T16:52:05;9.15;;;6.35;;
47784;SDS011;35233;55.686;37.848;2022-12-10T16:54:31;8.98;;;6.75;;
47784;SDS011;35233;55.686;37.848;2022-12-10T16:56:57;9.00;;;5.90;;
47784;SDS011;35233;55.686;37.848;2022-12-10T16:59:22;8.82;;;6.22;;
47784;SDS011;35233;55.686;37.848;2022-12-10T17:01:48;8.10;;;6.07;;